Time;durP1;ratioP1;P1;durP2;ratioP2;P2;SDS_P1;SDS_P2;PMS_P1;PMS_P2;Temp;Humidity;BMP_temperature;BMP_pressure;BME280_temperature;BME280_humidity;BME280_pressure;Samples;Min_cycle;Max_cycle;Signal;HPM_P1;HPM_P2
2022/01/30 00:00:33;;;;;;;2.43;1.73;;;;;;;;;;5094285;28;20451;-70
2022/01/30 00:03:01;;;;;;;3.67;1.63;;;;;;;;;;5094275;28;20493;-70
2022/01/30 00:05:28;;;;;;;2.53;1.50;;;;;;;;;;5093812;28;20827;-70
2022/01/30 00:07:57;;;;;;;2.17;1.50;;;;;;;;;;5094129;28;20502;-70
2022/01/30 00:10:24;;;;;;;2.00;1.67;;;;;;;;;;5094375;28;20442;-70
2022/01/30 00:12:55;;;;;;;2.57;1.93;;;;;;;;;;5093931;28;20967;-70
2022/01/30 00:15:34;;;;;;;2.30;1.70;;;;;;;;;;5093859;28;20504;-70
2022/01/30 00:18:17;;;;;;;2.17;1.63;;;;;;;;;;5094070;28;20577;-70
2022/01/30 00:20:48;;;;;;;2.53;1.73;;;;;;;;;;5094012;28;20455;-70
2022/01/30 00:23:22;;;;;;;2.00;1.30;;;;;;;;;;5094122;28;20447;-70
2022/01/30 00:25:52;;;;;;;5.53;1.60;;;;;;;;;;5093574;28;20481;-70
2022/01/30 00:28:21;;;;;;;1.60;1.30;;;;;;;;;;5093905;28;20455;-70
2022/01/30 00:30:49;;;;;;;1.60;1.40;;;;;;;;;;5093874;28;20455;-70
2022/01/30 00:33:16;;;;;;;3.07;1.60;;;;;;;;;;5093869;28;20897;-70
2022/01/30 00:35:43;;;;;;;2.10;1.50;;;;;;;;;;5093408;28;20471;-70
2022/01/30 00:38:15;;;;;;;1.60;1.20;;;;;;;;;;5093842;28;20845;-70
2022/01/30 00:40:44;;;;;;;2.07;1.57;;;;;;;;;;5093645;28;20832;-70
2022/01/30 00:43:11;;;;;;;2.17;1.43;;;;;;;;;;5093614;28;20450;-70
2022/01/30 00:45:38;;;;;;;1.30;1.20;;;;;;;;;;5093234;28;20478;-70
2022/01/30 00:48:06;;;;;;;1.77;1.30;;;;;;;;;;5093573;28;20465;-70
2022/01/30 00:50:33;;;;;;;1.90;1.10;;;;;;;;;;5093675;28;20983;-70
2022/01/30 00:53:01;;;;;;;1.97;1.40;;;;;;;;;;5093626;28;20466;-70
2022/01/30 00:55:29;;;;;;;3.93;1.20;;;;;;;;;;5092593;28;20479;-70
2022/01/30 00:57:58;;;;;;;1.70;1.37;;;;;;;;;;5093107;28;20449;-70
2022/01/30 01:00:27;;;;;;;1.80;1.40;;;;;;;;;;5093379;28;20847;-70
2022/01/30 01:02:54;;;;;;;1.97;1.33;;;;;;;;;;5093320;28;20450;-70
2022/01/30 01:05:21;;;;;;;1.87;1.23;;;;;;;;;;5092515;28;20465;-70
2022/01/30 01:07:50;;;;;;;1.90;1.37;;;;;;;;;;5093096;28;20469;-70
2022/01/30 01:10:27;;;;;;;1.70;1.23;;;;;;;;;;5093312;28;20828;-70
2022/01/30 01:13:06;;;;;;;1.70;1.43;;;;;;;;;;5093091;28;20454;-70
2022/01/30 01:24:03;;;;;;;2.23;1.43;;;;;;;;;;5056515;28;20467;-70
2022/01/30 01:26:30;;;;;;;2.17;1.20;;;;;;;;;;5093024;28;20565;-70
2022/01/30 01:28:57;;;;;;;1.70;1.40;;;;;;;;;;5093118;28;20939;-70
2022/01/30 01:31:25;;;;;;;2.20;1.40;;;;;;;;;;5093166;28;20443;-70
2022/01/30 01:34:07;;;;;;;1.83;1.47;;;;;;;;;;5093031;28;20451;-70
2022/01/30 01:36:34;;;;;;;1.77;1.27;;;;;;;;;;5092849;28;20512;-70
2022/01/30 01:39:01;;;;;;;2.33;1.20;;;;;;;;;;5092921;28;20486;-70
2022/01/30 01:41:29;;;;;;;2.03;1.20;;;;;;;;;;5092888;28;20943;-70
2022/01/30 01:43:57;;;;;;;2.50;1.67;;;;;;;;;;5093161;28;20482;-70
2022/01/30 01:46:28;;;;;;;1.93;1.50;;;;;;;;;;5092818;28;20502;-69
2022/01/30 01:48:56;;;;;;;1.80;1.40;;;;;;;;;;5093209;28;20807;-70
2022/01/30 01:51:24;;;;;;;2.10;1.50;;;;;;;;;;5092831;28;20473;-70
2022/01/30 01:53:52;;;;;;;1.90;1.17;;;;;;;;;;5092709;28;20835;-69
2022/01/30 01:56:20;;;;;;;2.50;0.90;;;;;;;;;;5092804;28;20510;-69
2022/01/30 01:58:47;;;;;;;1.40;1.03;;;;;;;;;;5092726;28;20474;-69
2022/01/30 02:01:14;;;;;;;2.00;1.27;;;;;;;;;;5092724;28;20455;-70
2022/01/30 02:03:44;;;;;;;1.60;1.10;;;;;;;;;;5092441;28;20459;-69
2022/01/30 02:06:14;;;;;;;2.07;1.00;;;;;;;;;;5092442;28;20486;-70
2022/01/30 02:08:44;;;;;;;1.87;1.27;;;;;;;;;;5096232;28;20557;-69
2022/01/30 02:11:14;;;;;;;1.63;1.30;;;;;;;;;;5096450;28;20503;-69
2022/01/30 02:25:02;;;;;;;1.60;1.40;;;;;;;;;;5096052;28;20450;-69
2022/01/30 02:27:34;;;;;;;2.67;1.07;;;;;;;;;;5096126;28;20485;-70
2022/01/30 02:30:01;;;;;;;1.77;1.30;;;;;;;;;;5096325;28;20955;-69
2022/01/30 02:32:28;;;;;;;1.50;0.97;;;;;;;;;;5095962;28;20457;-69
2022/01/30 02:34:55;;;;;;;1.43;1.03;;;;;;;;;;5095757;28;20446;-69
2022/01/30 02:37:22;;;;;;;1.80;1.47;;;;;;;;;;5095999;28;20847;-69
2022/01/30 02:39:51;;;;;;;1.57;1.27;;;;;;;;;;5095880;28;20493;-69
2022/01/30 02:42:23;;;;;;;1.63;1.30;;;;;;;;;;5095986;28;20450;-69
2022/01/30 02:44:53;;;;;;;1.50;1.20;;;;;;;;;;5095715;28;20458;-69
2022/01/30 02:47:38;;;;;;;1.50;1.10;;;;;;;;;;5095672;28;20475;-69
2022/01/30 02:50:13;;;;;;;1.40;1.00;;;;;;;;;;5096313;28;20863;-69
2022/01/30 02:52:43;;;;;;;2.17;1.30;;;;;;;;;;5095769;28;20616;-69
2022/01/30 02:55:13;;;;;;;1.93;1.40;;;;;;;;;;5095606;28;20478;-69
2022/01/30 02:57:41;;;;;;;1.50;1.30;;;;;;;;;;5095755;28;20446;-69
2022/01/30 03:00:10;;;;;;;3.37;1.60;;;;;;;;;;5095737;28;20490;-69
2022/01/30 03:02:37;;;;;;;1.60;1.20;;;;;;;;;;5095527;28;20504;-69
2022/01/30 03:05:04;;;;;;;1.83;1.40;;;;;;;;;;5095019;28;20456;-69
2022/01/30 03:07:31;;;;;;;2.90;1.50;;;;;;;;;;5095224;28;20487;-69
2022/01/30 03:09:59;;;;;;;5.73;1.80;;;;;;;;;;5095261;28;20446;-69
2022/01/30 03:12:27;;;;;;;1.83;1.17;;;;;;;;;;5095331;28;20454;-69
2022/01/30 03:14:54;;;;;;;1.90;1.50;;;;;;;;;;5095171;28;20459;-69
2022/01/30 03:17:21;;;;;;;1.60;1.30;;;;;;;;;;5094929;28;20467;-69
2022/01/30 03:19:48;;;;;;;2.00;1.30;;;;;;;;;;5095109;28;20509;-69
2022/01/30 03:22:16;;;;;;;1.33;1.07;;;;;;;;;;5095484;28;20450;-69
2022/01/30 03:24:43;;;;;;;2.10;1.20;;;;;;;;;;5094787;28;21017;-69
2022/01/30 03:27:12;;;;;;;1.30;0.97;;;;;;;;;;5095041;28;20467;-69
2022/01/30 03:29:49;;;;;;;1.60;1.33;;;;;;;;;;5095124;28;20542;-69
2022/01/30 03:32:16;;;;;;;1.80;1.30;;;;;;;;;;5095145;28;20450;-69
2022/01/30 03:34:43;;;;;;;2.53;1.10;;;;;;;;;;5094746;28;20454;-69
2022/01/30 03:37:10;;;;;;;1.60;1.20;;;;;;;;;;5094969;28;20482;-69
2022/01/30 03:39:37;;;;;;;1.40;1.00;;;;;;;;;;5094615;28;20486;-69
2022/01/30 03:42:05;;;;;;;1.47;1.07;;;;;;;;;;5094831;28;20450;-69
2022/01/30 03:44:32;;;;;;;1.30;1.07;;;;;;;;;;5094364;28;20453;-69
2022/01/30 03:47:00;;;;;;;1.20;0.90;;;;;;;;;;5094724;28;20967;-69
2022/01/30 03:49:27;;;;;;;39.87;2.73;;;;;;;;;;5094653;28;20446;-69
2022/01/30 03:51:55;;;;;;;2.60;1.20;;;;;;;;;;5094612;28;20451;-70
2022/01/30 03:54:22;;;;;;;1.40;1.10;;;;;;;;;;5094328;28;20454;-70
2022/01/30 03:56:49;;;;;;;2.30;1.10;;;;;;;;;;5094214;28;20478;-70
2022/01/30 03:59:16;;;;;;;1.80;1.20;;;;;;;;;;5094564;28;21022;-70
2022/01/30 04:01:43;;;;;;;1.60;1.10;;;;;;;;;;5094346;28;20453;-69
2022/01/30 04:04:11;;;;;;;1.87;0.93;;;;;;;;;;5094279;28;20451;-69
2022/01/30 04:06:39;;;;;;;1.27;0.83;;;;;;;;;;5093523;28;20474;-69
2022/01/30 04:09:06;;;;;;;2.00;1.00;;;;;;;;;;5094442;28;20451;-70
2022/01/30 04:11:33;;;;;;;1.50;0.90;;;;;;;;;;5094505;28;20446;-69
2022/01/30 04:14:01;;;;;;;2.30;1.07;;;;;;;;;;5093940;28;20447;-70
2022/01/30 04:16:28;;;;;;;1.90;1.20;;;;;;;;;;5093932;28;20471;-70
2022/01/30 04:18:56;;;;;;;1.30;0.90;;;;;;;;;;5094007;28;20447;-70
2022/01/30 04:21:25;;;;;;;1.40;1.00;;;;;;;;;;5094128;28;20542;-69
2022/01/30 04:23:52;;;;;;;1.30;0.80;;;;;;;;;;5093779;28;20476;-70
2022/01/30 04:26:19;;;;;;;1.40;1.10;;;;;;;;;;5093963;28;20473;-70
2022/01/30 04:28:47;;;;;;;1.50;1.17;;;;;;;;;;5093663;28;20458;-69
2022/01/30 04:31:14;;;;;;;1.20;0.90;;;;;;;;;;5093325;28;20447;-70
2022/01/30 04:33:41;;;;;;;1.70;0.93;;;;;;;;;;5093531;28;20530;-69
2022/01/30 04:36:12;;;;;;;2.17;0.90;;;;;;;;;;5093644;28;20478;-69
2022/01/30 04:38:54;;;;;;;1.47;1.07;;;;;;;;;;5093849;28;20895;-69
2022/01/30 04:52:33;;;;;;;2.07;1.20;;;;;;;;;;5093520;28;20458;-70
2022/01/30 04:57:57;;;;;;;2.03;1.10;;;;;;;;;;5093467;28;20459;-70
2022/01/30 05:00:33;;;;;;;1.70;1.10;;;;;;;;;;5093315;28;20486;-70
2022/01/30 05:03:17;;;;;;;1.57;1.10;;;;;;;;;;5093561;28;20462;-69
2022/01/30 05:05:59;;;;;;;1.90;1.13;;;;;;;;;;5092632;28;20479;-70
2022/01/30 05:08:26;;;;;;;1.43;1.13;;;;;;;;;;5093240;28;20462;-70
2022/01/30 05:10:55;;;;;;;1.90;1.50;;;;;;;;;;5093118;28;20537;-69
2022/01/30 05:13:26;;;;;;;2.03;1.10;;;;;;;;;;5093157;28;20458;-69
2022/01/30 05:15:53;;;;;;;1.87;1.20;;;;;;;;;;5093019;28;20484;-70
2022/01/30 05:18:21;;;;;;;1.87;1.00;;;;;;;;;;5093243;28;20809;-69
2022/01/30 05:20:48;;;;;;;1.87;1.07;;;;;;;;;;5093086;28;20486;-69
2022/01/30 05:23:16;;;;;;;1.40;1.00;;;;;;;;;;5093044;28;20447;-69
2022/01/30 05:25:44;;;;;;;1.50;1.07;;;;;;;;;;5092733;28;20477;-69
2022/01/30 05:28:13;;;;;;;1.60;1.10;;;;;;;;;;5093190;28;20454;-69
2022/01/30 05:30:40;;;;;;;1.40;1.03;;;;;;;;;;5092949;28;20449;-69
2022/01/30 05:33:07;;;;;;;2.30;1.40;;;;;;;;;;5093159;28;20450;-69
2022/01/30 05:35:35;;;;;;;1.83;1.37;;;;;;;;;;5092659;28;20972;-69
2022/01/30 05:38:03;;;;;;;2.20;1.17;;;;;;;;;;5093036;28;20467;-69
2022/01/30 05:40:31;;;;;;;1.70;1.27;;;;;;;;;;5093087;28;20483;-69
2022/01/30 05:42:58;;;;;;;1.57;1.03;;;;;;;;;;5097163;28;20454;-69
2022/01/30 05:45:32;;;;;;;1.83;1.53;;;;;;;;;;5096855;28;20458;-69
2022/01/30 05:48:04;;;;;;;1.57;1.20;;;;;;;;;;5097090;28;20458;-69
2022/01/30 05:50:31;;;;;;;1.60;1.13;;;;;;;;;;5096834;28;20489;-69
2022/01/30 05:52:58;;;;;;;3.47;1.87;;;;;;;;;;5097217;28;20446;-69
2022/01/30 05:55:25;;;;;;;1.60;1.23;;;;;;;;;;5096643;28;20461;-69
2022/01/30 05:57:54;;;;;;;4.07;1.53;;;;;;;;;;5096549;28;20924;-69
2022/01/30 06:00:21;;;;;;;3.27;1.60;;;;;;;;;;5096958;28;20999;-69
2022/01/30 06:02:49;;;;;;;2.10;1.30;;;;;;;;;;5096613;28;20450;-69
2022/01/30 06:05:19;;;;;;;2.60;1.33;;;;;;;;;;5096083;28;20463;-69
2022/01/30 06:07:51;;;;;;;4.40;1.47;;;;;;;;;;5096467;28;20835;-69
2022/01/30 06:10:19;;;;;;;5.17;1.50;;;;;;;;;;5096862;28;20490;-69
2022/01/30 06:12:46;;;;;;;2.27;1.57;;;;;;;;;;5096511;28;20446;-69
2022/01/30 06:15:14;;;;;;;1.90;1.40;;;;;;;;;;5096214;28;20458;-69
2022/01/30 06:17:41;;;;;;;7.47;1.60;;;;;;;;;;5096222;28;20458;-69
2022/01/30 06:20:10;;;;;;;2.43;2.17;;;;;;;;;;5096329;28;21022;-69
2022/01/30 06:22:38;;;;;;;2.40;1.70;;;;;;;;;;5096199;28;20458;-70
2022/01/30 06:25:05;;;;;;;4.50;1.53;;;;;;;;;;5096138;28;20498;-69
2022/01/30 06:27:32;;;;;;;3.53;1.70;;;;;;;;;;5096045;28;20470;-69
2022/01/30 06:29:59;;;;;;;2.33;1.50;;;;;;;;;;5096264;28;20476;-69
2022/01/30 06:32:27;;;;;;;4.53;1.90;;;;;;;;;;5095762;28;20450;-69
2022/01/30 06:34:54;;;;;;;1.73;1.30;;;;;;;;;;5095922;28;20447;-69
2022/01/30 06:37:22;;;;;;;1.77;1.33;;;;;;;;;;5096000;28;20823;-69
2022/01/30 06:39:49;;;;;;;2.23;1.27;;;;;;;;;;5095892;28;20513;-69
2022/01/30 06:42:17;;;;;;;2.33;1.53;;;;;;;;;;5096042;28;20533;-69
2022/01/30 06:44:45;;;;;;;2.30;1.80;;;;;;;;;;5095522;28;20453;-69
2022/01/30 06:47:12;;;;;;;5.90;2.60;;;;;;;;;;5095809;28;20561;-69
2022/01/30 06:49:39;;;;;;;9.83;2.77;;;;;;;;;;5095854;28;20503;-69
2022/01/30 06:52:09;;;;;;;2.13;1.77;;;;;;;;;;5095385;28;20818;-69
2022/01/30 06:54:38;;;;;;;2.77;2.37;;;;;;;;;;5095261;28;20470;-69
2022/01/30 06:57:06;;;;;;;1.93;1.60;;;;;;;;;;5095852;28;20498;-69
2022/01/30 06:59:33;;;;;;;6.80;1.93;;;;;;;;;;5095630;28;20450;-69
2022/01/30 07:02:00;;;;;;;2.67;1.60;;;;;;;;;;5095752;28;20928;-69
2022/01/30 07:04:27;;;;;;;2.50;1.83;;;;;;;;;;5094934;28;20457;-69
2022/01/30 07:06:54;;;;;;;3.93;2.20;;;;;;;;;;5095522;28;20826;-69
2022/01/30 07:09:22;;;;;;;6.83;2.67;;;;;;;;;;5095506;28;20450;-69
2022/01/30 07:11:50;;;;;;;5.67;2.07;;;;;;;;;;5095233;28;20455;-69
2022/01/30 07:14:17;;;;;;;7.53;2.53;;;;;;;;;;5095204;28;20845;-69
2022/01/30 07:16:44;;;;;;;4.13;2.40;;;;;;;;;;5095257;28;20486;-69
2022/01/30 07:19:11;;;;;;;13.13;5.50;;;;;;;;;;5095430;28;21003;-69
2022/01/30 07:21:39;;;;;;;3.00;2.00;;;;;;;;;;5094988;28;20513;-69
2022/01/30 07:24:06;;;;;;;5.83;2.30;;;;;;;;;;5095033;28;20477;-69
2022/01/30 07:26:33;;;;;;;2.50;1.60;;;;;;;;;;5094930;28;20467;-69
2022/01/30 07:29:03;;;;;;;6.60;1.93;;;;;;;;;;5095182;28;20947;-69
2022/01/30 07:31:31;;;;;;;2.27;1.60;;;;;;;;;;5095492;28;20447;-69
2022/01/30 07:33:58;;;;;;;3.87;2.30;;;;;;;;;;5094893;28;20932;-69
2022/01/30 07:36:25;;;;;;;3.27;2.07;;;;;;;;;;5094860;28;20549;-69
2022/01/30 07:38:53;;;;;;;3.10;2.20;;;;;;;;;;5094783;28;20447;-69
2022/01/30 07:41:20;;;;;;;2.73;2.10;;;;;;;;;;5094816;28;20497;-69
2022/01/30 07:43:47;;;;;;;3.93;2.00;;;;;;;;;;5094695;28;20580;-69
2022/01/30 07:46:16;;;;;;;2.57;1.87;;;;;;;;;;5094805;28;20998;-69
2022/01/30 07:48:43;;;;;;;3.50;2.30;;;;;;;;;;5094828;28;20951;-69
2022/01/30 07:51:10;;;;;;;4.30;2.53;;;;;;;;;;5094627;28;20458;-69
2022/01/30 07:53:37;;;;;;;2.40;2.00;;;;;;;;;;5094332;28;20453;-69
2022/01/30 07:56:04;;;;;;;3.97;2.40;;;;;;;;;;5094590;28;20841;-69
2022/01/30 07:58:31;;;;;;;2.20;1.53;;;;;;;;;;5094472;28;20932;-70
2022/01/30 08:00:58;;;;;;;2.67;1.93;;;;;;;;;;5094903;28;20493;-69
2022/01/30 08:03:27;;;;;;;5.00;2.73;;;;;;;;;;5094478;28;20447;-74
2022/01/30 08:05:54;;;;;;;3.70;2.23;;;;;;;;;;5093756;28;20474;-74
2022/01/30 08:08:21;;;;;;;9.03;2.60;;;;;;;;;;5094443;28;20459;-74
2022/01/30 08:10:48;;;;;;;5.63;2.07;;;;;;;;;;5083388;28;20467;-74
2022/01/30 08:13:16;;;;;;;4.27;2.53;;;;;;;;;;5092888;28;20446;-74
2022/01/30 08:15:44;;;;;;;6.00;2.37;;;;;;;;;;5092417;28;20470;-75
2022/01/30 08:18:11;;;;;;;5.53;2.43;;;;;;;;;;5092755;28;20511;-74
2022/01/30 08:20:42;;;;;;;4.63;1.80;;;;;;;;;;5092385;28;20739;-74
2022/01/30 08:23:12;;;;;;;7.30;2.40;;;;;;;;;;5092774;28;20457;-70
2022/01/30 08:25:40;;;;;;;3.30;1.60;;;;;;;;;;5092158;28;21011;-70
2022/01/30 08:28:07;;;;;;;2.60;2.37;;;;;;;;;;5092742;28;20450;-70
2022/01/30 08:30:34;;;;;;;4.67;2.20;;;;;;;;;;5092535;28;20469;-71
2022/01/30 08:33:02;;;;;;;2.50;1.83;;;;;;;;;;5092335;28;20446;-70
2022/01/30 08:35:30;;;;;;;5.57;2.53;;;;;;;;;;5091979;28;20838;-70
2022/01/30 08:37:59;;;;;;;3.27;1.80;;;;;;;;;;5092413;28;20470;-70
2022/01/30 08:40:26;;;;;;;4.87;3.20;;;;;;;;;;5092200;28;20490;-70
2022/01/30 08:42:54;;;;;;;4.03;2.73;;;;;;;;;;5092268;28;20935;-70
2022/01/30 08:45:21;;;;;;;5.53;2.13;;;;;;;;;;5092009;28;20486;-70
2022/01/30 08:47:49;;;;;;;3.70;2.47;;;;;;;;;;5091875;28;20473;-70
2022/01/30 08:50:17;;;;;;;11.40;2.33;;;;;;;;;;5092599;28;20450;-70
2022/01/30 08:52:45;;;;;;;4.97;2.27;;;;;;;;;;5092346;28;20450;-70
2022/01/30 08:55:14;;;;;;;5.63;3.93;;;;;;;;;;5091701;28;20484;-70
2022/01/30 08:57:41;;;;;;;4.00;1.83;;;;;;;;;;5091829;28;20461;-70
2022/01/30 09:00:09;;;;;;;9.40;3.03;;;;;;;;;;5091996;28;20830;-70
2022/01/30 09:02:37;;;;;;;8.93;2.87;;;;;;;;;;5091516;28;20486;-70
2022/01/30 09:05:04;;;;;;;5.93;2.40;;;;;;;;;;5091465;28;21062;-70
2022/01/30 09:07:31;;;;;;;6.40;2.63;;;;;;;;;;5072889;28;20496;-70
2022/01/30 09:09:58;;;;;;;7.40;3.30;;;;;;;;;;5085379;28;20932;-70
2022/01/30 09:12:27;;;;;;;13.63;3.03;;;;;;;;;;5093193;28;20467;-70
2022/01/30 09:14:54;;;;;;;4.80;2.67;;;;;;;;;;5093005;28;20461;-70
2022/01/30 09:17:24;;;;;;;9.80;3.20;;;;;;;;;;5092911;28;21002;-70
2022/01/30 09:19:51;;;;;;;4.93;3.37;;;;;;;;;;5093141;28;20446;-70
2022/01/30 09:22:19;;;;;;;4.90;2.67;;;;;;;;;;5093169;28;20509;-70
2022/01/30 09:24:46;;;;;;;3.83;2.30;;;;;;;;;;5092990;28;20450;-70
2022/01/30 09:27:14;;;;;;;3.20;2.20;;;;;;;;;;5093042;28;20471;-70
2022/01/30 09:29:44;;;;;;;6.03;2.33;;;;;;;;;;5093080;28;20458;-70
2022/01/30 09:32:11;;;;;;;9.63;2.57;;;;;;;;;;5093125;28;20454;-70
2022/01/30 09:34:38;;;;;;;3.90;2.07;;;;;;;;;;5092792;28;20442;-70
2022/01/30 09:37:05;;;;;;;10.77;2.47;;;;;;;;;;5093046;28;20477;-70
2022/01/30 09:39:33;;;;;;;8.53;2.23;;;;;;;;;;5092968;28;20826;-70
2022/01/30 09:42:00;;;;;;;3.73;2.00;;;;;;;;;;5093049;28;20486;-70
2022/01/30 09:44:27;;;;;;;5.07;3.20;;;;;;;;;;5092836;28;20446;-71
2022/01/30 09:46:55;;;;;;;8.33;2.40;;;;;;;;;;5092811;28;20506;-71
2022/01/30 09:49:23;;;;;;;8.63;2.77;;;;;;;;;;5092914;28;20451;-71
2022/01/30 09:51:51;;;;;;;4.53;2.40;;;;;;;;;;5093096;28;20450;-71
2022/01/30 09:54:18;;;;;;;9.90;2.30;;;;;;;;;;5092700;28;20446;-71
2022/01/30 09:56:45;;;;;;;4.00;2.30;;;;;;;;;;5092646;28;20474;-71
2022/01/30 09:59:13;;;;;;;4.10;2.00;;;;;;;;;;5093274;28;20486;-71
2022/01/30 10:01:40;;;;;;;7.67;2.67;;;;;;;;;;5092573;28;20486;-71
2022/01/30 10:04:08;;;;;;;8.90;3.50;;;;;;;;;;5092824;28;20853;-72
2022/01/30 10:06:52;;;;;;;7.50;3.07;;;;;;;;;;5092179;28;20470;-71
2022/01/30 10:09:25;;;;;;;10.33;2.70;;;;;;;;;;5092745;28;20454;-71
2022/01/30 10:12:01;;;;;;;4.00;2.10;;;;;;;;;;5092662;28;20447;-71
2022/01/30 10:14:28;;;;;;;6.10;3.40;;;;;;;;;;5092509;28;20943;-71
2022/01/30 10:16:56;;;;;;;5.40;3.20;;;;;;;;;;5092510;28;20473;-71
2022/01/30 10:19:25;;;;;;;14.80;3.33;;;;;;;;;;5092673;28;20451;-71
2022/01/30 10:22:03;;;;;;;7.90;2.37;;;;;;;;;;5092487;28;20490;-71
2022/01/30 10:24:31;;;;;;;7.30;2.93;;;;;;;;;;5092797;28;20462;-71
2022/01/30 10:26:59;;;;;;;6.53;2.37;;;;;;;;;;5092909;28;20470;-71
2022/01/30 10:29:27;;;;;;;5.23;2.43;;;;;;;;;;5095770;28;20504;-71
2022/01/30 10:31:58;;;;;;;7.73;2.87;;;;;;;;;;5096139;28;20914;-72
2022/01/30 10:34:27;;;;;;;3.30;2.03;;;;;;;;;;5096088;28;20478;-72
2022/01/30 10:37:09;;;;;;;11.30;2.40;;;;;;;;;;5096032;28;20467;-72
2022/01/30 10:39:53;;;;;;;6.33;2.33;;;;;;;;;;5095978;28;20443;-72
2022/01/30 10:42:30;;;;;;;8.70;2.90;;;;;;;;;;5095996;28;20522;-71
2022/01/30 10:44:57;;;;;;;4.77;2.63;;;;;;;;;;5095860;28;20457;-72
2022/01/30 10:47:24;;;;;;;7.03;3.33;;;;;;;;;;5096072;28;20962;-71
2022/01/30 10:49:53;;;;;;;7.33;2.97;;;;;;;;;;5096105;28;20793;-72
2022/01/30 10:52:22;;;;;;;4.33;2.10;;;;;;;;;;5095982;28;20968;-72
2022/01/30 10:54:50;;;;;;;5.87;2.43;;;;;;;;;;5095456;28;20462;-72
2022/01/30 10:57:18;;;;;;;6.93;2.47;;;;;;;;;;5095637;28;20461;-72
2022/01/30 10:59:52;;;;;;;11.27;2.70;;;;;;;;;;5095613;28;20450;-72
2022/01/30 11:02:20;;;;;;;5.70;2.17;;;;;;;;;;5095531;28;20527;-71
2022/01/30 11:04:48;;;;;;;7.17;2.80;;;;;;;;;;5095082;28;20458;-72
2022/01/30 11:07:20;;;;;;;10.80;2.50;;;;;;;;;;5095281;28;20487;-71
2022/01/30 11:09:57;;;;;;;12.20;2.87;;;;;;;;;;5095898;28;20882;-71
2022/01/30 11:12:34;;;;;;;7.30;2.17;;;;;;;;;;5095562;28;20496;-72
2022/01/30 11:15:16;;;;;;;5.10;2.47;;;;;;;;;;5095472;28;20950;-71
2022/01/30 11:17:44;;;;;;;10.70;3.07;;;;;;;;;;5095153;28;20473;-71
2022/01/30 11:20:13;;;;;;;7.00;2.20;;;;;;;;;;5095295;28;20450;-71
2022/01/30 11:22:43;;;;;;;4.80;2.50;;;;;;;;;;5095127;28;20486;-71
2022/01/30 11:25:12;;;;;;;8.30;2.27;;;;;;;;;;5094954;28;20457;-72
2022/01/30 11:27:41;;;;;;;7.73;3.43;;;;;;;;;;5095225;28;20451;-72
2022/01/30 11:30:09;;;;;;;4.97;2.47;;;;;;;;;;5095144;28;20450;-71
2022/01/30 11:32:36;;;;;;;8.13;2.60;;;;;;;;;;5094947;28;20451;-72
2022/01/30 11:35:04;;;;;;;8.40;2.97;;;;;;;;;;5094945;28;20447;-71
2022/01/30 11:37:33;;;;;;;10.50;2.73;;;;;;;;;;5094918;28;20481;-71
2022/01/30 11:40:11;;;;;;;7.43;3.03;;;;;;;;;;5094710;28;21011;-71
2022/01/30 11:42:40;;;;;;;6.13;2.80;;;;;;;;;;5094750;28;20862;-71
2022/01/30 11:45:14;;;;;;;6.53;2.47;;;;;;;;;;5094631;28;20516;-72
2022/01/30 11:47:45;;;;;;;15.53;4.00;;;;;;;;;;5094840;28;20450;-71
2022/01/30 11:50:13;;;;;;;6.17;2.43;;;;;;;;;;5094980;28;20962;-71
2022/01/30 11:52:59;;;;;;;4.30;2.87;;;;;;;;;;5095167;28;20808;-71
2022/01/30 11:55:46;;;;;;;9.77;3.50;;;;;;;;;;5094411;28;20537;-71
2022/01/30 11:58:32;;;;;;;5.33;3.47;;;;;;;;;;5094645;28;20455;-71
2022/01/30 12:01:00;;;;;;;4.97;3.13;;;;;;;;;;5094596;28;20451;-72
2022/01/30 12:03:28;;;;;;;21.00;4.03;;;;;;;;;;5094155;28;20482;-71
2022/01/30 12:05:56;;;;;;;5.03;2.67;;;;;;;;;;5093768;28;20486;-71
2022/01/30 12:08:42;;;;;;;9.57;4.00;;;;;;;;;;5094311;28;20459;-71
2022/01/30 12:11:37;;;;;;;6.47;2.80;;;;;;;;;;5094318;28;20482;-71
2022/01/30 12:14:04;;;;;;;6.20;2.47;;;;;;;;;;5094177;28;20830;-71
2022/01/30 12:16:44;;;;;;;9.30;3.17;;;;;;;;;;5093230;28;20482;-71
2022/01/30 12:19:11;;;;;;;6.53;2.53;;;;;;;;;;5094327;28;20523;-71
2022/01/30 12:21:39;;;;;;;11.40;3.50;;;;;;;;;;5093900;28;20509;-71
2022/01/30 12:24:21;;;;;;;5.43;2.80;;;;;;;;;;5093816;28;20459;-71
2022/01/30 12:26:52;;;;;;;4.73;2.60;;;;;;;;;;5093984;28;20455;-71
2022/01/30 12:29:35;;;;;;;5.90;3.67;;;;;;;;;;5094074;28;20802;-71
2022/01/30 12:32:31;;;;;;;9.97;2.87;;;;;;;;;;5093888;28;20446;-71
2022/01/30 12:35:03;;;;;;;5.80;2.40;;;;;;;;;;5093402;28;20815;-71
2022/01/30 12:37:31;;;;;;;8.53;3.00;;;;;;;;;;5093425;28;20467;-71
2022/01/30 12:39:59;;;;;;;6.53;3.60;;;;;;;;;;5093877;28;20449;-72
2022/01/30 12:42:28;;;;;;;10.30;2.73;;;;;;;;;;5093697;28;20524;-71
2022/01/30 12:45:00;;;;;;;8.10;2.47;;;;;;;;;;5093442;28;20455;-71
2022/01/30 12:47:27;;;;;;;7.27;2.73;;;;;;;;;;5093523;28;20471;-71
2022/01/30 12:49:58;;;;;;;8.33;2.60;;;;;;;;;;5093390;28;20465;-71
2022/01/30 12:52:33;;;;;;;4.80;2.10;;;;;;;;;;5093210;28;20861;-72
2022/01/30 12:55:07;;;;;;;11.63;2.30;;;;;;;;;;5093678;28;20454;-72
2022/01/30 12:57:36;;;;;;;8.73;2.83;;;;;;;;;;5093272;28;20573;-72
2022/01/30 13:00:06;;;;;;;17.10;5.43;;;;;;;;;;5093360;28;20454;-72
2022/01/30 13:02:34;;;;;;;9.47;3.40;;;;;;;;;;5093389;28;20508;-71
2022/01/30 13:05:01;;;;;;;7.40;2.83;;;;;;;;;;5092883;28;20814;-71
2022/01/30 13:07:29;;;;;;;6.17;3.00;;;;;;;;;;5093042;28;20492;-71
2022/01/30 13:10:04;;;;;;;10.43;3.20;;;;;;;;;;5093443;28;20454;-71
2022/01/30 13:12:32;;;;;;;7.73;2.40;;;;;;;;;;5093329;28;20952;-71
2022/01/30 13:15:05;;;;;;;6.57;3.00;;;;;;;;;;5093472;28;20496;-71
2022/01/30 13:17:32;;;;;;;12.43;3.93;;;;;;;;;;5093067;28;20519;-71
2022/01/30 13:20:00;;;;;;;10.60;3.00;;;;;;;;;;5093099;28;20497;-71
2022/01/30 13:22:29;;;;;;;7.33;5.40;;;;;;;;;;5093095;28;20482;-72
2022/01/30 13:24:57;;;;;;;8.03;3.20;;;;;;;;;;5092996;28;20992;-72
2022/01/30 13:27:24;;;;;;;4.17;1.87;;;;;;;;;;5070885;28;20480;-72
2022/01/30 13:29:53;;;;;;;6.30;2.40;;;;;;;;;;5071171;28;20459;-72
2022/01/30 13:32:23;;;;;;;5.10;2.33;;;;;;;;;;5071501;28;20455;-72
2022/01/30 13:34:50;;;;;;;8.20;2.50;;;;;;;;;;5071120;28;20494;-72
2022/01/30 13:37:19;;;;;;;10.90;3.33;;;;;;;;;;5071882;28;20464;-72
2022/01/30 13:39:50;;;;;;;11.00;3.53;;;;;;;;;;5071557;28;20462;-72
2022/01/30 13:42:34;;;;;;;9.20;3.00;;;;;;;;;;5071475;28;20484;-72
2022/01/30 13:46:54;;;;;;;4.70;2.17;;;;;;;;;;5072501;28;21016;-72
2022/01/30 13:47:55;;;;;;;4.80;2.50;;;;;;;;;;5072526;28;20448;-72
2022/01/30 13:50:24;;;;;;;6.80;2.63;;;;;;;;;;5073003;28;20459;-72
2022/01/30 13:53:00;;;;;;;25.30;16.47;;;;;;;;;;5072588;28;20451;-72
2022/01/30 13:55:28;;;;;;;9.43;6.03;;;;;;;;;;5073068;28;20504;-72
2022/01/30 13:57:57;;;;;;;6.63;2.63;;;;;;;;;;5072705;28;20456;-72
2022/01/30 14:00:24;;;;;;;8.33;3.03;;;;;;;;;;5072804;28;20456;-72
2022/01/30 14:02:53;;;;;;;9.13;3.30;;;;;;;;;;5075300;28;20816;-72
2022/01/30 14:05:25;;;;;;;5.47;2.43;;;;;;;;;;5075873;28;20458;-71
2022/01/30 14:07:53;;;;;;;6.10;2.97;;;;;;;;;;5076220;28;20474;-72
2022/01/30 14:10:21;;;;;;;6.93;2.57;;;;;;;;;;5076310;28;20451;-72
2022/01/30 14:12:50;;;;;;;10.90;4.27;;;;;;;;;;5076443;28;20456;-72
2022/01/30 14:15:20;;;;;;;9.20;2.80;;;;;;;;;;5076057;28;20495;-72
2022/01/30 14:17:48;;;;;;;4.30;1.77;;;;;;;;;;5076231;28;20460;-72
2022/01/30 14:20:15;;;;;;;10.80;3.33;;;;;;;;;;5076395;28;20455;-71
2022/01/30 14:22:44;;;;;;;9.73;4.17;;;;;;;;;;5075938;28;20486;-72
2022/01/30 14:25:18;;;;;;;12.60;2.47;;;;;;;;;;5075848;28;20444;-71
2022/01/30 14:27:45;;;;;;;15.10;3.70;;;;;;;;;;5075974;28;20447;-71
2022/01/30 14:30:12;;;;;;;9.13;2.80;;;;;;;;;;5076417;28;20482;-72
2022/01/30 14:32:42;;;;;;;5.93;2.30;;;;;;;;;;5075869;28;20822;-71
2022/01/30 14:35:12;;;;;;;4.77;3.20;;;;;;;;;;5075847;28;20966;-72
2022/01/30 14:37:44;;;;;;;8.33;2.20;;;;;;;;;;5075491;28;20440;-71
2022/01/30 14:40:13;;;;;;;5.20;2.37;;;;;;;;;;5075663;28;20462;-71
2022/01/30 14:42:40;;;;;;;6.87;2.33;;;;;;;;;;5075536;28;20487;-71
2022/01/30 14:45:08;;;;;;;5.90;2.47;;;;;;;;;;5075513;28;20444;-71
2022/01/30 14:47:35;;;;;;;7.30;1.93;;;;;;;;;;5075681;28;20467;-71
2022/01/30 14:50:02;;;;;;;8.23;2.63;;;;;;;;;;5075742;28;20451;-71
2022/01/30 14:52:29;;;;;;;4.83;1.90;;;;;;;;;;5075496;28;20451;-72
2022/01/30 14:54:56;;;;;;;6.53;2.67;;;;;;;;;;5075392;28;20452;-71
2022/01/30 14:57:25;;;;;;;5.33;2.13;;;;;;;;;;5075364;28;20483;-71
2022/01/30 14:59:52;;;;;;;5.60;2.00;;;;;;;;;;5075442;28;20925;-71
2022/01/30 15:02:19;;;;;;;4.97;2.77;;;;;;;;;;5075460;28;20455;-71
2022/01/30 15:04:46;;;;;;;7.87;2.27;;;;;;;;;;5074731;28;20456;-72
2022/01/30 15:07:14;;;;;;;23.13;10.77;;;;;;;;;;5074363;28;20483;-71
2022/01/30 15:09:41;;;;;;;12.60;4.43;;;;;;;;;;5075113;28;20460;-72
2022/01/30 15:12:12;;;;;;;7.20;3.70;;;;;;;;;;5075253;28;20443;-71
2022/01/30 15:14:41;;;;;;;12.87;4.13;;;;;;;;;;5074126;28;20870;-72
2022/01/30 15:17:18;;;;;;;24.63;8.67;;;;;;;;;;5074906;28;20483;-72
2022/01/30 15:19:45;;;;;;;6.60;3.00;;;;;;;;;;5074988;28;20451;-71
2022/01/30 15:22:12;;;;;;;11.30;6.33;;;;;;;;;;5075044;28;20452;-71
2022/01/30 15:24:40;;;;;;;9.70;5.63;;;;;;;;;;5074720;28;20444;-71
2022/01/30 15:27:07;;;;;;;14.70;8.50;;;;;;;;;;5074765;28;20471;-71